createdAt,value
2019-06-07T00:02:45.467Z,11.60
2019-06-07T00:05:37.025Z,11.70
2019-06-07T00:08:29.467Z,11.70
2019-06-07T00:11:21.298Z,11.70
2019-06-07T00:14:16.078Z,11.70
2019-06-07T00:17:12.466Z,11.70
2019-06-07T00:20:02.482Z,11.70
2019-06-07T00:22:55.519Z,11.70
2019-06-07T00:25:46.894Z,11.70
2019-06-07T00:28:38.445Z,11.70
2019-06-07T00:31:29.885Z,11.70
2019-06-07T00:34:23.032Z,11.70
2019-06-07T00:37:14.262Z,11.70
2019-06-07T00:40:16.331Z,11.70
2019-06-07T00:43:01.643Z,11.70
2019-06-07T00:45:53.471Z,11.70
2019-06-07T00:48:45.150Z,11.70
2019-06-07T00:51:49.891Z,11.70
2019-06-07T00:54:30.140Z,11.70
2019-06-07T00:57:24.222Z,11.70
2019-06-07T01:00:18.324Z,11.80
2019-06-07T01:03:08.654Z,11.80
2019-06-07T01:06:00.526Z,11.80
2019-06-07T01:08:51.882Z,11.90
2019-06-07T01:11:43.406Z,11.90
2019-06-07T01:14:34.913Z,11.90
2019-06-07T01:17:41.424Z,12.00
2019-06-07T01:20:24.191Z,12.00
2019-06-07T01:23:57.919Z,12.00
2019-06-07T01:26:07.503Z,12.00
2019-06-07T01:28:58.996Z,12.00
2019-06-07T01:31:50.272Z,12.00
2019-06-07T01:34:41.609Z,12.00
2019-06-07T01:37:33.176Z,12.00
2019-06-07T01:40:30.377Z,12.00
2019-06-07T01:43:19.511Z,11.90
2019-06-07T01:46:11.034Z,11.90
2019-06-07T01:49:02.640Z,11.90
2019-06-07T01:51:54.082Z,11.90
2019-06-07T01:54:58.333Z,11.90
2019-06-07T01:57:48.158Z,11.90
2019-06-07T02:00:32.728Z,11.90
2019-06-07T02:03:26.914Z,11.80
2019-06-07T02:06:18.442Z,11.80
2019-06-07T02:09:09.935Z,11.80
2019-06-07T02:12:01.291Z,11.90
2019-06-07T02:14:52.889Z,11.90
2019-06-07T02:17:44.743Z,12.00
2019-06-07T02:20:36.952Z,12.00
2019-06-07T02:23:31.672Z,12.00
2019-06-07T02:26:22.890Z,11.90
2019-06-07T02:29:14.820Z,11.90
2019-06-07T02:32:06.206Z,11.90
2019-06-07T02:34:57.745Z,11.90
2019-06-07T02:37:48.979Z,12.00
2019-06-07T02:40:40.604Z,12.00
2019-06-07T02:43:35.136Z,12.00
2019-06-07T02:46:38.231Z,12.00
2019-06-07T02:49:20.572Z,12.00
2019-06-07T02:52:12.221Z,12.10
2019-06-07T02:55:04.574Z,12.10
2019-06-07T02:57:56.006Z,12.20
2019-06-07T03:01:09.324Z,12.20
2019-06-07T03:03:42.886Z,12.20
2019-06-07T03:06:39.547Z,12.20
2019-06-07T03:09:30.742Z,12.20
2019-06-07T03:12:22.414Z,12.20
2019-06-07T03:15:32.105Z,12.30
2019-06-07T03:18:17.429Z,12.30
2019-06-07T03:21:12.874Z,12.30
2019-06-07T03:24:04.245Z,12.30
2019-06-07T03:27:34.028Z,12.30
2019-06-07T03:29:49.450Z,12.30
2019-06-07T03:32:47.182Z,12.40
2019-06-07T03:35:35.301Z,12.40
2019-06-07T03:38:27.726Z,12.40
2019-06-07T03:41:19.684Z,12.40
2019-06-07T03:44:11.213Z,12.30
2019-06-07T03:47:03.126Z,12.20
2019-06-07T03:49:54.467Z,12.20
2019-06-07T03:52:46.631Z,12.10
2019-06-07T03:55:41.099Z,12.10
2019-06-07T03:58:37.114Z,12.00
2019-06-07T04:01:25.309Z,11.90
2019-06-07T04:04:17.112Z,11.80
2019-06-07T04:07:08.611Z,11.70
2019-06-07T04:10:00.762Z,11.60
2019-06-07T04:12:53.732Z,11.50
2019-06-07T04:15:45.333Z,11.50
2019-06-07T04:18:40.851Z,11.40
2019-06-07T04:21:31.413Z,11.40
2019-06-07T04:24:23.268Z,11.40
2019-06-07T04:27:14.898Z,11.40
2019-06-07T04:30:08.401Z,11.50
2019-06-07T04:33:00.291Z,11.50
2019-06-07T04:35:51.781Z,11.60
2019-06-07T04:38:44.728Z,11.70
2019-06-07T04:41:39.091Z,11.80
2019-06-07T04:44:34.934Z,11.90
2019-06-07T04:47:29.281Z,12.00
2019-06-07T04:50:20.848Z,12.00
2019-06-07T04:53:12.303Z,12.10
2019-06-07T04:56:04.064Z,12.20
2019-06-07T04:58:55.694Z,12.30
2019-06-07T05:01:47.516Z,12.40
2019-06-07T05:04:39.838Z,12.50
2019-06-07T05:07:32.992Z,12.70
2019-06-07T05:10:25.499Z,12.80
2019-06-07T05:13:16.791Z,13.00
2019-06-07T05:16:08.473Z,13.20
2019-06-07T05:19:00.034Z,13.40
2019-06-07T05:22:03.502Z,13.70
2019-06-07T05:24:44.508Z,13.90
2019-06-07T05:27:39.212Z,14.10
2019-06-07T05:31:02.076Z,14.20
2019-06-07T05:33:31.153Z,14.30
2019-06-07T05:36:22.634Z,14.30
2019-06-07T05:39:14.321Z,14.40
2019-06-07T05:42:05.720Z,14.40
2019-06-07T05:44:57.014Z,14.50
2019-06-07T05:47:50.919Z,14.70
2019-06-07T05:50:55.338Z,14.70
2019-06-07T05:53:34.716Z,14.80
2019-06-07T05:56:26.370Z,14.80
2019-06-07T05:59:18.529Z,14.80
2019-06-07T06:02:22.222Z,14.80
2019-06-07T06:05:04.561Z,14.80
2019-06-07T06:07:55.930Z,14.70
2019-06-07T06:10:48.871Z,14.70
2019-06-07T06:14:03.515Z,14.70
2019-06-07T06:16:34.598Z,14.70
2019-06-07T06:19:26.161Z,14.80
2019-06-07T06:22:17.658Z,14.90
2019-06-07T06:25:32.006Z,15.00
2019-06-07T06:28:10.969Z,15.00
2019-06-07T06:30:56.220Z,15.10
2019-06-07T06:33:49.922Z,15.10
2019-06-07T06:36:44.649Z,15.10
2019-06-07T06:39:34.272Z,15.20
2019-06-07T06:42:25.663Z,15.20
2019-06-07T06:45:19.242Z,15.30
2019-06-07T06:48:10.856Z,15.40
2019-06-07T06:51:03.492Z,15.50
2019-06-07T06:53:55.243Z,15.60
2019-06-07T06:56:47.556Z,15.70
2019-06-07T06:59:43.680Z,16.00
2019-06-07T07:03:26.951Z,16.30
2019-06-07T07:05:30.234Z,16.80
2019-06-07T07:08:21.571Z,17.40
2019-06-07T07:11:13.194Z,18.00
2019-06-07T07:14:04.888Z,18.70
2019-06-07T07:16:56.730Z,19.60
2019-06-07T07:19:50.376Z,19.70
2019-06-07T07:22:42.745Z,19.00
2019-06-07T07:25:34.541Z,18.60
2019-06-07T07:28:25.778Z,18.80
2019-06-07T07:31:17.263Z,19.00
2019-06-07T07:37:01.635Z,18.60
2019-06-07T07:40:01.226Z,18.70
2019-06-07T07:42:47.528Z,18.90
2019-06-07T07:45:39.391Z,19.30
2019-06-07T07:48:31.799Z,19.60
2019-06-07T07:51:23.490Z,19.80
2019-06-07T07:54:15.337Z,19.60
2019-06-07T07:57:06.972Z,19.40
2019-06-07T08:00:36.184Z,19.20
2019-06-07T08:02:53.775Z,19.60
2019-06-07T08:05:46.613Z,20.00
2019-06-07T08:08:38.152Z,19.40
2019-06-07T08:11:29.911Z,19.20
2019-06-07T08:14:21.855Z,19.10
2019-06-07T08:17:13.849Z,19.00
2019-06-07T08:20:06.054Z,19.40
2019-06-07T08:22:59.710Z,20.00
2019-06-07T08:25:52.703Z,20.20
2019-06-07T08:28:43.592Z,20.30
2019-06-07T08:31:35.285Z,20.00
2019-06-07T08:34:26.575Z,20.00
2019-06-07T08:37:18.718Z,20.20
2019-06-07T08:40:11.351Z,20.00
2019-06-07T08:43:18.134Z,19.70
2019-06-07T08:46:02.315Z,19.30
2019-06-07T08:48:51.711Z,19.30
2019-06-07T08:51:44.426Z,18.90
2019-06-07T08:54:35.733Z,18.80
2019-06-07T08:57:27.014Z,18.80
2019-06-07T09:00:43.234Z,18.80
2019-06-07T09:03:12.449Z,18.50
2019-06-07T09:06:16.463Z,18.30
2019-06-07T09:09:00.370Z,18.30
2019-06-07T09:11:49.814Z,18.40
2019-06-07T09:14:59.063Z,18.50
2019-06-07T09:17:35.538Z,18.80
2019-06-07T09:20:45.264Z,19.30
2019-06-07T09:23:36.582Z,19.80
2019-06-07T09:26:28.205Z,20.20
2019-06-07T09:29:20.047Z,20.10
2019-06-07T09:32:17.938Z,20.30
2019-06-07T09:35:11.336Z,20.10
2019-06-07T09:38:18.017Z,19.80
2019-06-07T09:40:51.112Z,19.60
2019-06-07T09:46:36.566Z,20.30
2019-06-07T09:49:32.466Z,20.70
2019-06-07T09:52:21.500Z,20.90
2019-06-07T09:55:23.775Z,20.90
2019-06-07T09:58:47.619Z,20.80
2019-06-07T10:01:03.948Z,20.60
2019-06-07T10:03:52.099Z,20.40
2019-06-07T10:06:43.427Z,20.40
2019-06-07T10:10:09.840Z,20.60
2019-06-07T10:12:28.214Z,20.70
2019-06-07T10:15:19.716Z,20.80
2019-06-07T10:18:11.249Z,20.80
2019-06-07T10:21:03.729Z,21.10
2019-06-07T10:23:55.225Z,21.90
2019-06-07T10:26:46.732Z,22.60
2019-06-07T10:29:38.072Z,23.10
2019-06-07T10:32:30.151Z,22.90
2019-06-07T10:35:21.657Z,22.60
2019-06-07T10:38:13.116Z,22.00
2019-06-07T10:41:04.800Z,21.50
2019-06-07T10:43:56.150Z,21.00
2019-06-07T10:46:47.715Z,20.60
2019-06-07T10:49:39.192Z,20.30
2019-06-07T10:52:30.482Z,20.10
2019-06-07T10:55:22.464Z,20.00
2019-06-07T10:58:13.779Z,19.90
2019-06-07T11:01:07.249Z,19.90
2019-06-07T11:03:59.225Z,19.90
2019-06-07T11:06:51.315Z,20.10
2019-06-07T11:09:43.450Z,20.40
2019-06-07T11:12:35.993Z,20.50
2019-06-07T11:15:27.515Z,20.40
2019-06-07T11:18:18.991Z,20.10
2019-06-07T11:21:10.248Z,19.80
2019-06-07T11:24:01.813Z,19.70
2019-06-07T11:26:53.166Z,19.60
2019-06-07T11:29:44.653Z,19.50
2019-06-07T11:32:36.132Z,19.30
2019-06-07T11:35:27.516Z,19.30
2019-06-07T11:38:19.145Z,19.20
2019-06-07T11:41:11.581Z,19.00
2019-06-07T11:44:03.857Z,18.90
2019-06-07T11:46:55.229Z,18.80
2019-06-07T11:49:46.545Z,18.50
2019-06-07T11:52:39.914Z,18.10
2019-06-07T11:55:31.452Z,17.70
2019-06-07T11:58:22.902Z,17.30
2019-06-07T12:01:17.164Z,17.00
2019-06-07T12:04:09.490Z,16.70
2019-06-07T12:07:01.061Z,16.40
2019-06-07T12:09:56.308Z,16.20
2019-06-07T12:12:45.484Z,16.00
2019-06-07T12:15:37.639Z,15.90
2019-06-07T12:18:29.292Z,16.00
2019-06-07T12:21:20.895Z,16.10
2019-06-07T12:24:12.250Z,16.10
2019-06-07T12:27:03.794Z,16.10
2019-06-07T12:29:55.180Z,16.10
2019-06-07T12:32:46.529Z,16.00
2019-06-07T12:35:38.135Z,15.90
2019-06-07T12:38:29.410Z,15.70
2019-06-07T12:41:20.829Z,15.70
2019-06-07T12:44:12.798Z,15.60
2019-06-07T12:47:04.303Z,15.50
2019-06-07T12:49:55.768Z,15.50
2019-06-07T12:52:47.448Z,15.70
2019-06-07T12:55:38.742Z,15.80
2019-06-07T12:58:35.321Z,15.90
2019-06-07T13:01:24.760Z,15.80
2019-06-07T13:04:16.420Z,15.80
2019-06-07T13:07:07.759Z,15.80
2019-06-07T13:09:59.149Z,15.80
2019-06-07T13:12:50.505Z,15.70
2019-06-07T13:15:41.970Z,15.60
2019-06-07T13:18:33.972Z,15.40
2019-06-07T13:21:25.654Z,15.30
2019-06-07T13:24:18.753Z,15.40
2019-06-07T13:27:10.014Z,15.50
2019-06-07T13:30:09.162Z,15.60
2019-06-07T13:32:54.228Z,15.70
2019-06-07T13:35:46.110Z,15.70
2019-06-07T13:38:37.728Z,15.90
2019-06-07T13:41:40.494Z,16.00
2019-06-07T13:44:22.941Z,16.20
2019-06-07T13:47:14.674Z,16.40
2019-06-07T13:50:07.077Z,16.60
2019-06-07T13:52:58.600Z,16.80
2019-06-07T13:55:49.880Z,17.20
2019-06-07T13:58:41.225Z,17.60
2019-06-07T14:01:32.516Z,17.70
2019-06-07T14:04:24.888Z,17.90
2019-06-07T14:07:16.365Z,17.80
2019-06-07T14:10:11.434Z,17.60
2019-06-07T14:13:01.116Z,17.50
2019-06-07T14:15:52.740Z,17.40
2019-06-07T14:18:44.267Z,17.50
2019-06-07T14:21:35.861Z,17.60
2019-06-07T14:24:27.238Z,17.60
2019-06-07T14:27:18.911Z,17.60
2019-06-07T14:30:10.715Z,17.50
2019-06-07T14:33:02.481Z,17.40
2019-06-07T14:35:55.109Z,17.30
2019-06-07T14:38:46.404Z,17.10
2019-06-07T14:41:37.698Z,17.20
2019-06-07T14:44:29.870Z,17.10
2019-06-07T14:47:21.135Z,17.10
2019-06-07T14:50:15.156Z,17.00
2019-06-07T14:53:06.507Z,16.90
2019-06-07T14:55:57.858Z,16.80
2019-06-07T14:58:49.431Z,16.80
2019-06-07T15:01:41.022Z,16.80
2019-06-07T15:04:33.118Z,16.90
2019-06-07T15:07:26.786Z,17.00
2019-06-07T15:10:18.603Z,17.10
2019-06-07T15:13:10.199Z,17.20
2019-06-07T15:16:01.961Z,17.30
2019-06-07T15:18:54.768Z,17.30
2019-06-07T15:21:46.213Z,17.20
2019-06-07T15:24:40.521Z,17.20
2019-06-07T15:27:32.968Z,17.10
2019-06-07T15:30:24.774Z,16.90
2019-06-07T15:33:16.340Z,16.80
2019-06-07T15:36:07.742Z,16.90
2019-06-07T15:38:59.061Z,17.10
2019-06-07T15:41:50.342Z,17.20
2019-06-07T15:44:41.783Z,17.30
2019-06-07T15:47:33.811Z,17.40
2019-06-07T15:50:28.644Z,17.30
2019-06-07T15:53:18.750Z,17.30
2019-06-07T15:56:10.138Z,17.20
2019-06-07T15:59:01.770Z,17.10
2019-06-07T16:01:53.926Z,17.20
2019-06-07T16:04:45.620Z,17.40
2019-06-07T16:07:38.350Z,17.40
2019-06-07T16:10:30.444Z,17.40
2019-06-07T16:13:22.031Z,17.20
2019-06-07T16:16:13.628Z,17.00
2019-06-07T16:19:05.201Z,16.90
2019-06-07T16:21:56.518Z,17.00
2019-06-07T16:24:48.320Z,17.00
2019-06-07T16:27:40.620Z,17.10
2019-06-07T16:30:32.262Z,17.20
2019-06-07T16:33:23.535Z,17.10
2019-06-07T16:36:15.000Z,17.20
2019-06-07T16:39:08.553Z,17.20
2019-06-07T16:42:00.104Z,17.00
2019-06-07T16:44:51.539Z,16.90
2019-06-07T16:47:45.292Z,16.90
2019-06-07T16:50:36.707Z,16.80
2019-06-07T16:53:28.568Z,17.00
2019-06-07T16:56:19.925Z,17.00
2019-06-07T16:59:11.123Z,16.90
2019-06-07T17:02:02.459Z,16.90
2019-06-07T17:04:54.128Z,16.80
2019-06-07T17:07:46.909Z,16.70
2019-06-07T17:10:40.101Z,16.60
2019-06-07T17:13:33.826Z,16.60
2019-06-07T17:16:24.531Z,16.50
2019-06-07T17:19:15.781Z,16.40
2019-06-07T17:22:07.286Z,16.40
2019-06-07T17:24:58.689Z,16.40
2019-06-07T17:27:50.354Z,16.40
2019-06-07T17:30:41.869Z,16.50
2019-06-07T17:33:34.147Z,16.50
2019-06-07T17:36:25.498Z,16.50
2019-06-07T17:39:17.617Z,16.50
2019-06-07T17:42:08.907Z,16.50
2019-06-07T17:45:00.290Z,16.40
2019-06-07T17:47:52.137Z,16.30
2019-06-07T17:50:44.068Z,16.30
2019-06-07T17:53:35.406Z,16.30
2019-06-07T17:56:26.954Z,16.30
2019-06-07T17:59:18.533Z,16.20
2019-06-07T18:02:14.937Z,16.20
2019-06-07T18:05:03.426Z,16.20
2019-06-07T18:07:56.161Z,16.10
2019-06-07T18:10:49.921Z,16.20
2019-06-07T18:13:41.556Z,16.20
2019-06-07T18:16:33.012Z,16.20
2019-06-07T18:19:24.399Z,16.10
2019-06-07T18:22:15.781Z,16.10
2019-06-07T18:25:09.645Z,15.90
2019-06-07T18:28:01.016Z,15.70
2019-06-07T18:30:52.848Z,15.30
2019-06-07T18:33:44.357Z,15.00
2019-06-07T18:36:35.895Z,14.70
2019-06-07T18:39:27.541Z,14.60
2019-06-07T18:42:18.888Z,14.40
2019-06-07T18:45:10.460Z,14.40
2019-06-07T18:48:01.924Z,14.30
2019-06-07T18:50:54.622Z,14.30
2019-06-07T18:53:47.522Z,14.30
2019-06-07T18:56:40.022Z,14.30
2019-06-07T18:59:31.541Z,14.20
2019-06-07T19:02:23.009Z,14.20
2019-06-07T19:05:16.368Z,14.30
2019-06-07T19:08:08.279Z,14.30
2019-06-07T19:11:00.570Z,14.30
2019-06-07T19:13:53.009Z,14.20
2019-06-07T19:16:45.247Z,14.20
2019-06-07T19:19:38.590Z,14.10
2019-06-07T19:22:30.134Z,14.10
2019-06-07T19:25:21.620Z,14.10
2019-06-07T19:28:13.308Z,14.00
2019-06-07T19:31:04.717Z,14.00
2019-06-07T19:33:57.213Z,14.00
2019-06-07T19:36:49.263Z,14.00
2019-06-07T19:39:40.885Z,14.10
2019-06-07T19:42:33.092Z,14.10
2019-06-07T19:45:30.210Z,14.20
2019-06-07T19:48:18.722Z,14.20
2019-06-07T19:51:10.217Z,14.20
2019-06-07T19:54:03.647Z,14.20
2019-06-07T19:56:55.496Z,14.30
2019-06-07T19:59:48.334Z,14.30
2019-06-07T20:02:39.876Z,14.30
2019-06-07T20:05:33.825Z,14.40
2019-06-07T20:08:24.722Z,14.50
2019-06-07T20:11:16.309Z,14.40
2019-06-07T20:14:07.864Z,14.50
2019-06-07T20:16:59.994Z,14.40
2019-06-07T20:19:52.935Z,14.20
2019-06-07T20:22:44.485Z,14.10
2019-06-07T20:25:36.182Z,14.10
2019-06-07T20:28:28.224Z,14.10
2019-06-07T20:31:19.843Z,14.10
2019-06-07T20:34:11.808Z,14.10
2019-06-07T20:37:05.478Z,14.10
2019-06-07T20:39:57.034Z,14.00
2019-06-07T20:42:49.616Z,14.00
2019-06-07T20:45:41.991Z,14.00
2019-06-07T20:48:33.287Z,14.00
2019-06-07T20:51:24.516Z,14.00
2019-06-07T20:54:16.264Z,14.00
2019-06-07T20:57:08.850Z,14.00
2019-06-07T21:00:10.400Z,14.00
2019-06-07T21:02:55.764Z,14.00
2019-06-07T21:05:47.925Z,13.90
2019-06-07T21:08:39.323Z,13.90
2019-06-07T21:11:30.974Z,13.90
2019-06-07T21:14:22.620Z,13.90
2019-06-07T21:17:14.135Z,13.90
2019-06-07T21:20:08.191Z,13.90
2019-06-07T21:22:58.675Z,13.90
2019-06-07T21:25:49.994Z,13.90
2019-06-07T21:28:41.553Z,13.90
2019-06-07T21:31:33.071Z,13.70
2019-06-07T21:34:24.605Z,13.60
2019-06-07T21:37:16.113Z,13.50
2019-06-07T21:40:08.437Z,13.40
2019-06-07T21:43:00.133Z,13.40
2019-06-07T21:46:04.397Z,13.30
2019-06-07T21:48:44.685Z,13.30
2019-06-07T21:51:35.955Z,13.20
2019-06-07T21:54:27.412Z,13.20
2019-06-07T21:57:18.789Z,13.10
2019-06-07T22:00:15.358Z,13.10
2019-06-07T22:03:09.390Z,12.90
2019-06-07T22:06:01.147Z,12.80
2019-06-07T22:08:53.364Z,12.70
2019-06-07T22:11:45.806Z,12.60
2019-06-07T22:14:37.434Z,12.60
2019-06-07T22:17:28.980Z,12.50
2019-06-07T22:20:20.794Z,12.50
2019-06-07T22:23:12.764Z,12.50
2019-06-07T22:26:04.924Z,12.50
2019-06-07T22:28:56.461Z,12.50
2019-06-07T22:31:47.988Z,12.50
2019-06-07T22:34:39.680Z,12.50
2019-06-07T22:37:31.026Z,12.50
2019-06-07T22:40:24.086Z,12.50
2019-06-07T22:43:15.994Z,12.50
2019-06-07T22:46:08.706Z,12.50
2019-06-07T22:49:00.797Z,12.50
2019-06-07T22:51:59.482Z,12.50
2019-06-07T22:54:45.763Z,12.40
2019-06-07T22:57:58.695Z,12.30
2019-06-07T23:00:50.168Z,12.30
2019-06-07T23:03:41.660Z,12.20
2019-06-07T23:06:33.194Z,12.10
2019-06-07T23:09:24.465Z,12.10
2019-06-07T23:12:17.410Z,12.10
2019-06-07T23:15:09.492Z,12.10
2019-06-07T23:18:00.777Z,12.20
2019-06-07T23:20:52.106Z,12.20
2019-06-07T23:23:43.461Z,12.30
2019-06-07T23:26:34.943Z,12.40
2019-06-07T23:29:26.404Z,12.50
2019-06-07T23:32:20.165Z,12.50
2019-06-07T23:35:11.038Z,12.60
2019-06-07T23:38:03.077Z,12.60
2019-06-07T23:40:54.471Z,12.60
2019-06-07T23:43:46.059Z,12.60
2019-06-07T23:46:37.665Z,12.60
2019-06-07T23:49:28.929Z,12.60
2019-06-07T23:52:22.094Z,12.60
2019-06-07T23:55:15.888Z,12.60
2019-06-07T23:58:08.337Z,12.70
